CBN3 weather

Buffalo Narrows (Fire Centre) Heliport
Buffalo Narrows, Saskatchewan, Canada

Public forecast

Using degrees Celsius for public forecast. Weather courtesy of forecast.io.

METAR (pilot weather report)

Report is more than 2 hours old.

Closest report is Buffalo Narrows Airport, 0.7 nm (1.2 km) NW. Retrieved 2019/04/24 04:00 UTC (5 hours ago):

CYVT 240400Z 26006KT 15SM FEW080 SCT100 SCT250 09/M00 A2965 RMK AC1AC2CI1 LAST STFD OBS/NXT 241200 UTC SLP053

TAF (pilot weather forecast)

Forecast is more than 6 hours old.

Closest forecast is Buffalo Narrows Airport, 0.7 nm (1.2 km) NW. Retrieved 2019/04/24 01:00 UTC (8 hours ago):

TAF CYVT 240038Z 2401/2404 28020G30KT P6SM -SHRA BKN060 BKN090 FM240200 28010KT P6SM SCT060 BKN090 RMK NXT FCST WILL BE ISSUED AT 241345Z